createdAt,value
2022-08-07T00:01:44.326Z,26.56
2022-08-07T00:04:47.989Z,26.20
2022-08-07T00:07:28.662Z,26.23
2022-08-07T00:10:47.868Z,26.09
2022-08-07T00:13:57.959Z,25.71
2022-08-07T00:16:32.517Z,25.49
2022-08-07T00:19:00.136Z,25.42
2022-08-07T00:21:57.481Z,25.36
2022-08-07T00:24:17.474Z,25.32
2022-08-07T00:26:58.482Z,25.13
2022-08-07T00:29:32.100Z,25.04
2022-08-07T00:31:59.790Z,24.94
2022-08-07T00:34:26.983Z,24.96
2022-08-07T00:36:56.544Z,24.67
2022-08-07T00:39:23.407Z,24.67
2022-08-07T00:42:01.712Z,24.58
2022-08-07T00:44:33.074Z,24.59
2022-08-07T00:47:00.802Z,24.61
2022-08-07T00:50:20.391Z,24.67
2022-08-07T00:53:09.973Z,24.78
2022-08-07T00:56:02.706Z,24.76
2022-08-07T00:58:31.303Z,24.80
2022-08-07T01:00:58.912Z,25.04
2022-08-07T01:03:55.639Z,25.17
2022-08-07T01:06:40.614Z,24.97
2022-08-07T01:10:04.012Z,24.91
2022-08-07T01:12:54.004Z,24.84
2022-08-07T01:16:05.747Z,24.83
2022-08-07T01:18:24.789Z,24.84
2022-08-07T01:21:22.942Z,24.80
2022-08-07T01:23:57.584Z,24.89
2022-08-07T01:26:26.177Z,24.99
2022-08-07T01:28:55.082Z,25.02
2022-08-07T01:31:42.787Z,25.00
2022-08-07T01:34:15.104Z,25.00
2022-08-07T01:36:44.273Z,25.01
2022-08-07T01:39:22.549Z,24.99
2022-08-07T01:42:36.970Z,25.02
2022-08-07T01:44:49.639Z,25.07
2022-08-07T01:48:18.320Z,25.13
2022-08-07T01:50:28.862Z,25.14
2022-08-07T01:54:09.130Z,25.20
2022-08-07T01:56:40.962Z,25.12
2022-08-07T01:59:24.599Z,25.10
2022-08-07T02:02:06.446Z,24.89
2022-08-07T02:04:55.603Z,24.36
2022-08-07T02:07:36.200Z,24.15
2022-08-07T02:11:03.573Z,24.50
2022-08-07T02:13:57.163Z,24.75
2022-08-07T02:16:33.452Z,24.92
2022-08-07T02:20:05.005Z,24.77
2022-08-07T02:21:58.510Z,24.56
2022-08-07T02:24:29.358Z,24.32
2022-08-07T02:26:57.810Z,24.08
2022-08-07T02:29:29.156Z,23.82
2022-08-07T02:31:57.965Z,23.69
2022-08-07T02:34:27.476Z,23.53
2022-08-07T02:36:55.563Z,23.71
2022-08-07T02:39:43.267Z,23.56
2022-08-07T02:42:16.129Z,23.52
2022-08-07T02:44:48.398Z,23.63
2022-08-07T02:47:23.723Z,23.59
2022-08-07T02:50:19.050Z,23.36
2022-08-07T02:53:12.142Z,23.49
2022-08-07T02:56:03.371Z,23.49
2022-08-07T02:58:33.233Z,23.55
2022-08-07T03:01:36.693Z,23.45
2022-08-07T03:04:34.051Z,23.39
2022-08-07T03:08:05.030Z,23.32
2022-08-07T03:10:47.214Z,23.41
2022-08-07T03:13:49.686Z,23.68
2022-08-07T03:16:30.983Z,23.88
2022-08-07T03:18:59.399Z,23.86
2022-08-07T03:21:28.110Z,23.88
2022-08-07T03:24:19.695Z,24.00
2022-08-07T03:26:58.422Z,24.15
2022-08-07T03:29:36.604Z,24.18
2022-08-07T03:32:07.166Z,24.27
2022-08-07T03:34:47.598Z,24.40
2022-08-07T03:37:32.478Z,24.37
2022-08-07T03:40:14.906Z,24.38
2022-08-07T03:42:44.149Z,24.47
2022-08-07T03:45:12.762Z,24.61
2022-08-07T03:48:21.069Z,24.56
2022-08-07T03:51:22.093Z,24.31
2022-08-07T03:54:35.886Z,24.23
2022-08-07T03:57:03.429Z,24.14
2022-08-07T03:59:32.485Z,24.23
2022-08-07T04:01:59.845Z,24.21
2022-08-07T04:04:28.402Z,24.08
2022-08-07T04:07:16.554Z,24.27
2022-08-07T04:10:08.088Z,24.41
2022-08-07T04:13:17.118Z,24.53
2022-08-07T04:15:59.736Z,24.63
2022-08-07T04:18:57.426Z,24.67
2022-08-07T04:21:59.619Z,24.76
2022-08-07T04:24:39.239Z,24.88
2022-08-07T04:27:20.348Z,24.92
2022-08-07T04:30:01.302Z,24.96
2022-08-07T04:32:38.153Z,24.78
2022-08-07T04:35:12.774Z,24.88
2022-08-07T04:38:00.795Z,24.79
2022-08-07T04:40:30.055Z,24.61
2022-08-07T04:43:02.278Z,24.34
2022-08-07T04:46:01.290Z,24.68
2022-08-07T04:48:57.119Z,24.82
2022-08-07T04:52:10.178Z,24.71
2022-08-07T04:55:14.961Z,24.60
2022-08-07T04:58:10.762Z,24.79
2022-08-07T05:01:13.600Z,24.54
2022-08-07T05:04:36.112Z,24.30
2022-08-07T05:07:36.992Z,24.30
2022-08-07T05:10:51.125Z,24.35
2022-08-07T05:14:55.862Z,24.30
2022-08-07T05:16:54.043Z,24.24
2022-08-07T05:19:45.077Z,24.44
2022-08-07T05:22:28.863Z,24.34
2022-08-07T05:25:00.434Z,24.61
2022-08-07T05:28:16.059Z,24.52
2022-08-07T05:30:30.295Z,24.49
2022-08-07T05:33:03.975Z,24.37
2022-08-07T05:35:33.925Z,24.23
2022-08-07T05:38:11.224Z,24.27
2022-08-07T05:40:50.408Z,24.27
2022-08-07T05:43:49.509Z,24.53
2022-08-07T05:46:08.132Z,24.49
2022-08-07T05:48:35.504Z,24.56
2022-08-07T05:51:23.187Z,24.57
2022-08-07T05:54:13.309Z,24.67
2022-08-07T05:56:51.622Z,24.88
2022-08-07T05:59:19.710Z,24.98
2022-08-07T06:01:54.054Z,25.23
2022-08-07T06:04:29.757Z,25.16
2022-08-07T06:07:03.622Z,25.04
2022-08-07T06:10:05.482Z,25.22
2022-08-07T06:12:46.837Z,25.06
2022-08-07T06:15:15.974Z,24.87
2022-08-07T06:17:50.653Z,24.76
2022-08-07T06:20:25.416Z,24.99
2022-08-07T06:23:02.362Z,25.07
2022-08-07T06:25:54.526Z,25.07
2022-08-07T06:28:28.089Z,25.04
2022-08-07T06:31:17.298Z,24.68
2022-08-07T06:34:19.533Z,25.07
2022-08-07T06:37:02.480Z,24.72
2022-08-07T06:40:17.640Z,25.19
2022-08-07T06:42:32.932Z,25.57
2022-08-07T06:45:15.509Z,25.84
2022-08-07T06:47:57.668Z,26.01
2022-08-07T06:50:50.205Z,26.54
2022-08-07T06:55:27.499Z,26.45
2022-08-07T06:56:49.316Z,26.04
2022-08-07T07:00:15.035Z,25.44
2022-08-07T07:02:48.597Z,25.52
2022-08-07T07:05:08.445Z,25.61
2022-08-07T07:08:06.464Z,25.98
2022-08-07T07:11:13.927Z,25.62
2022-08-07T07:14:09.915Z,26.10
2022-08-07T07:16:58.218Z,25.96
2022-08-07T07:19:56.973Z,26.91
2022-08-07T07:22:35.931Z,27.46
2022-08-07T07:26:31.330Z,27.67
2022-08-07T07:28:29.926Z,27.92
2022-08-07T07:31:00.104Z,28.15
2022-08-07T07:33:28.357Z,28.30
2022-08-07T07:36:12.547Z,27.91
2022-08-07T07:38:41.453Z,27.73
2022-08-07T07:41:11.487Z,28.02
2022-08-07T07:44:14.868Z,28.03
2022-08-07T07:46:36.789Z,28.25
2022-08-07T07:50:33.286Z,28.44
2022-08-07T07:53:01.214Z,28.52
2022-08-07T07:55:54.989Z,29.59
2022-08-07T07:58:26.383Z,29.45
2022-08-07T08:00:55.870Z,30.32
2022-08-07T08:04:10.358Z,30.92
2022-08-07T08:06:13.167Z,30.72
2022-08-07T08:09:00.282Z,30.99
2022-08-07T08:12:03.761Z,31.19
2022-08-07T08:14:45.773Z,30.09
2022-08-07T08:17:55.934Z,29.70
2022-08-07T08:20:19.086Z,30.04
2022-08-07T08:23:10.367Z,28.87
2022-08-07T08:26:04.639Z,29.18
2022-08-07T08:28:37.942Z,29.78
2022-08-07T08:31:16.452Z,29.89
2022-08-07T08:33:55.446Z,30.38
2022-08-07T08:36:29.775Z,30.70
2022-08-07T08:38:57.665Z,30.97
2022-08-07T08:41:25.904Z,31.19
2022-08-07T08:44:02.967Z,31.00
2022-08-07T08:46:45.015Z,31.01
2022-08-07T08:49:46.800Z,31.23
2022-08-07T08:52:57.328Z,31.67
2022-08-07T08:55:59.375Z,31.08
2022-08-07T08:58:29.019Z,31.20
2022-08-07T09:01:02.173Z,31.22
2022-08-07T09:03:48.109Z,31.30
2022-08-07T09:06:22.570Z,31.29
2022-08-07T09:09:30.235Z,31.11
2022-08-07T09:12:32.734Z,30.67
2022-08-07T09:14:59.896Z,29.89
2022-08-07T09:18:22.453Z,30.06
2022-08-07T09:21:34.291Z,29.72
2022-08-07T09:24:53.999Z,29.32
2022-08-07T09:27:43.628Z,29.55
2022-08-07T09:30:25.413Z,29.82
2022-08-07T09:33:53.279Z,29.69
2022-08-07T09:36:43.157Z,29.91
2022-08-07T09:39:54.729Z,30.17
2022-08-07T09:42:23.183Z,30.56
2022-08-07T09:47:50.442Z,29.63
2022-08-07T09:48:01.198Z,29.92
2022-08-07T09:51:05.377Z,29.40
2022-08-07T09:54:02.355Z,29.32
2022-08-07T09:56:49.024Z,29.35
2022-08-07T09:59:25.896Z,30.03
2022-08-07T10:02:24.103Z,29.14
2022-08-07T10:05:00.497Z,29.05
2022-08-07T10:08:18.378Z,29.48
2022-08-07T10:12:03.365Z,30.08
2022-08-07T10:14:31.095Z,30.28
2022-08-07T10:16:59.534Z,30.88
2022-08-07T10:19:37.759Z,30.81
2022-08-07T10:22:24.845Z,31.09
2022-08-07T10:25:13.070Z,30.70
2022-08-07T10:27:58.709Z,30.98
2022-08-07T10:30:48.039Z,30.85
2022-08-07T10:34:05.006Z,30.64
2022-08-07T10:36:29.249Z,31.19
2022-08-07T10:40:02.594Z,31.27
2022-08-07T10:42:36.672Z,31.40
2022-08-07T10:45:04.240Z,31.02
2022-08-07T10:48:09.738Z,31.29
2022-08-07T10:51:05.425Z,29.82
2022-08-07T10:54:04.387Z,30.65
2022-08-07T10:56:39.958Z,31.18
2022-08-07T10:59:13.593Z,31.29
2022-08-07T11:01:51.989Z,29.34
2022-08-07T11:04:41.084Z,29.88
2022-08-07T11:07:59.662Z,28.68
2022-08-07T11:10:43.626Z,28.95
2022-08-07T11:14:42.361Z,29.68
2022-08-07T11:16:29.763Z,29.69
2022-08-07T11:18:57.604Z,28.77
2022-08-07T11:21:46.734Z,29.27
2022-08-07T11:24:26.051Z,29.23
2022-08-07T11:26:53.940Z,29.75
2022-08-07T11:29:48.353Z,29.50
2022-08-07T11:32:50.392Z,30.23
2022-08-07T11:36:00.330Z,30.44
2022-08-07T11:38:50.697Z,30.19
2022-08-07T11:41:29.633Z,31.08
2022-08-07T11:44:14.472Z,29.96
2022-08-07T11:46:48.962Z,29.10
2022-08-07T11:50:18.783Z,30.21
2022-08-07T11:53:08.133Z,30.06
2022-08-07T11:56:24.692Z,29.05
2022-08-07T11:59:01.085Z,29.29
2022-08-07T12:01:59.217Z,29.15
2022-08-07T12:04:43.033Z,29.52
2022-08-07T12:07:53.852Z,30.61
2022-08-07T12:11:08.458Z,30.16
2022-08-07T12:13:47.992Z,30.44
2022-08-07T12:16:29.892Z,30.88
2022-08-07T12:19:05.416Z,30.84
2022-08-07T12:22:35.932Z,31.05
2022-08-07T12:24:38.507Z,30.22
2022-08-07T12:28:08.652Z,29.79
2022-08-07T12:30:33.637Z,29.02
2022-08-07T12:33:03.002Z,29.55
2022-08-07T12:35:48.055Z,30.00
2022-08-07T12:38:37.018Z,30.27
2022-08-07T12:41:11.090Z,29.88
2022-08-07T12:44:03.031Z,29.37
2022-08-07T12:46:39.871Z,29.62
2022-08-07T12:49:48.546Z,30.08
2022-08-07T12:53:01.401Z,29.48
2022-08-07T12:56:02.709Z,29.39
2022-08-07T12:58:39.690Z,29.46
2022-08-07T13:01:12.214Z,30.16
2022-08-07T13:03:54.954Z,30.23
2022-08-07T13:06:54.385Z,30.46
2022-08-07T13:10:18.863Z,29.26
2022-08-07T13:13:47.507Z,29.38
2022-08-07T13:16:16.183Z,29.68
2022-08-07T13:19:11.435Z,30.16
2022-08-07T13:22:37.497Z,30.14
2022-08-07T13:25:29.635Z,30.30
2022-08-07T13:28:13.902Z,30.13
2022-08-07T13:30:52.235Z,30.28
2022-08-07T13:34:33.726Z,29.99
2022-08-07T13:36:35.347Z,29.65
2022-08-07T13:40:34.143Z,29.85
2022-08-07T13:42:49.755Z,30.06
2022-08-07T13:46:11.340Z,30.14
2022-08-07T13:49:02.527Z,30.34
2022-08-07T13:52:22.843Z,30.48
2022-08-07T13:54:41.763Z,30.81
2022-08-07T13:57:23.888Z,29.48
2022-08-07T13:59:55.254Z,29.27
2022-08-07T14:02:33.160Z,29.76
2022-08-07T14:05:09.426Z,30.14
2022-08-07T14:07:59.743Z,30.17
2022-08-07T14:11:17.414Z,30.77
2022-08-07T14:14:04.095Z,30.82
2022-08-07T14:16:54.537Z,31.01
2022-08-07T14:20:43.297Z,30.20
2022-08-07T14:22:42.459Z,30.39
2022-08-07T14:25:12.041Z,30.77
2022-08-07T14:28:19.854Z,30.76
2022-08-07T14:30:32.984Z,30.17
2022-08-07T14:33:04.710Z,30.22
2022-08-07T14:35:44.675Z,30.37
2022-08-07T14:38:26.536Z,30.18
2022-08-07T14:41:03.932Z,29.92
2022-08-07T14:43:59.432Z,29.71
2022-08-07T14:46:34.521Z,29.76
2022-08-07T14:49:17.021Z,30.28
2022-08-07T14:57:24.458Z,30.18
2022-08-07T15:02:39.704Z,30.27
2022-08-07T15:05:19.618Z,30.20
2022-08-07T15:08:08.541Z,30.26
2022-08-07T15:13:06.340Z,29.92
2022-08-07T15:14:57.990Z,30.03
2022-08-07T15:17:54.867Z,30.31
2022-08-07T15:20:32.871Z,30.57
2022-08-07T15:23:20.104Z,30.60
2022-08-07T15:25:51.109Z,30.78
2022-08-07T15:31:09.721Z,30.23
2022-08-07T15:33:39.013Z,30.55
2022-08-07T15:36:10.223Z,30.60
2022-08-07T15:45:09.500Z,29.94
2022-08-07T15:51:08.974Z,30.12
2022-08-07T15:53:51.864Z,30.05
2022-08-07T15:56:19.830Z,30.08
2022-08-07T15:58:53.788Z,30.13
2022-08-07T16:01:38.985Z,30.05
2022-08-07T16:04:14.537Z,29.83
2022-08-07T16:07:04.971Z,30.20
2022-08-07T16:10:18.807Z,30.01
2022-08-07T16:13:57.937Z,30.05
2022-08-07T16:16:48.909Z,29.65
2022-08-07T16:19:17.561Z,30.10
2022-08-07T16:22:05.199Z,30.05
2022-08-07T16:24:52.389Z,29.81
2022-08-07T16:27:26.512Z,30.02
2022-08-07T16:30:30.479Z,29.91
2022-08-07T16:34:02.861Z,29.96
2022-08-07T16:36:19.691Z,30.19
2022-08-07T16:39:04.626Z,30.18
2022-08-07T16:41:41.213Z,30.34
2022-08-07T16:45:15.353Z,30.35
2022-08-07T16:48:03.653Z,30.21
2022-08-07T16:50:52.558Z,30.01
2022-08-07T16:54:06.708Z,29.97
2022-08-07T16:56:38.940Z,29.29
2022-08-07T16:59:17.639Z,29.34
2022-08-07T17:02:51.330Z,29.32
2022-08-07T17:06:19.904Z,29.27
2022-08-07T17:09:09.106Z,29.49
2022-08-07T17:12:34.100Z,29.41
2022-08-07T17:15:15.617Z,29.23
2022-08-07T17:17:49.157Z,29.28
2022-08-07T17:20:23.068Z,29.28
2022-08-07T17:23:02.459Z,29.07
2022-08-07T17:25:51.401Z,28.82
2022-08-07T17:28:49.918Z,28.84
2022-08-07T17:31:44.319Z,28.72
2022-08-07T17:34:34.520Z,28.78
2022-08-07T17:38:04.951Z,28.71
2022-08-07T17:40:08.782Z,28.57
2022-08-07T17:42:35.941Z,28.66
2022-08-07T17:45:57.627Z,28.62
2022-08-07T17:49:23.924Z,28.44
2022-08-07T17:52:04.259Z,28.34
2022-08-07T17:54:53.914Z,28.52
2022-08-07T17:58:04.129Z,28.34
2022-08-07T18:00:49.396Z,28.34
2022-08-07T18:03:18.076Z,28.32
2022-08-07T18:06:01.813Z,28.22
2022-08-07T18:08:32.850Z,28.12
2022-08-07T18:12:16.133Z,28.17
2022-08-07T18:14:25.685Z,28.15
2022-08-07T18:17:10.754Z,28.07
2022-08-07T18:21:09.921Z,27.94
2022-08-07T18:23:42.257Z,28.00
2022-08-07T18:26:15.257Z,27.77
2022-08-07T18:29:02.177Z,27.64
2022-08-07T18:31:50.333Z,27.64
2022-08-07T18:34:37.121Z,27.52
2022-08-07T18:37:09.767Z,27.44
2022-08-07T18:40:07.445Z,27.58
2022-08-07T18:42:45.053Z,27.22
2022-08-07T18:46:22.107Z,27.16
2022-08-07T18:50:05.310Z,27.12
2022-08-07T18:52:35.153Z,27.14
2022-08-07T18:55:41.932Z,26.98
2022-08-07T18:58:42.612Z,27.00
2022-08-07T19:02:18.920Z,27.02
2022-08-07T19:04:13.198Z,26.76
2022-08-07T19:06:51.663Z,26.64
2022-08-07T19:09:56.689Z,26.72
2022-08-07T19:13:22.113Z,26.73
2022-08-07T19:16:42.933Z,26.92
2022-08-07T19:18:59.995Z,27.03
2022-08-07T19:21:51.101Z,26.98
2022-08-07T19:24:30.659Z,26.91
2022-08-07T19:28:57.637Z,26.83
2022-08-07T19:31:05.487Z,26.83
2022-08-07T19:32:46.463Z,26.82
2022-08-07T19:35:37.712Z,26.67
2022-08-07T19:38:22.693Z,26.56
2022-08-07T19:40:51.892Z,26.51
2022-08-07T19:43:45.178Z,26.44
2022-08-07T19:46:37.737Z,26.54
2022-08-07T19:49:58.431Z,26.44
2022-08-07T19:52:39.370Z,26.43
2022-08-07T19:55:11.054Z,26.40
2022-08-07T19:57:51.328Z,26.37
2022-08-07T20:00:53.990Z,26.38
2022-08-07T20:03:56.814Z,26.52
2022-08-07T20:06:37.517Z,26.51
2022-08-07T20:10:33.607Z,26.58
2022-08-07T20:12:31.412Z,26.66
2022-08-07T20:15:18.869Z,26.41
2022-08-07T20:18:01.295Z,26.61
2022-08-07T20:20:31.595Z,26.39
2022-08-07T20:23:01.269Z,26.37
2022-08-07T20:25:29.158Z,26.31
2022-08-07T20:27:58.571Z,26.30
2022-08-07T20:30:34.635Z,26.30
2022-08-07T20:33:03.122Z,26.23
2022-08-07T20:35:36.514Z,26.25
2022-08-07T20:38:21.018Z,26.24
2022-08-07T20:41:11.814Z,26.23
2022-08-07T20:43:57.327Z,26.18
2022-08-07T20:46:32.225Z,25.96
2022-08-07T20:49:59.672Z,25.85
2022-08-07T20:51:50.980Z,25.83
2022-08-07T20:54:30.242Z,25.78
2022-08-07T20:57:01.585Z,25.68
2022-08-07T21:00:07.874Z,25.48
2022-08-07T21:02:58.067Z,25.59
2022-08-07T21:05:49.760Z,25.67
2022-08-07T21:08:41.241Z,25.77
2022-08-07T21:11:40.039Z,25.80
2022-08-07T21:14:53.618Z,25.65
2022-08-07T21:18:01.929Z,25.62
2022-08-07T21:20:26.799Z,25.48
2022-08-07T21:22:58.381Z,25.58
2022-08-07T21:25:39.151Z,25.60
2022-08-07T21:28:06.202Z,25.61
2022-08-07T21:30:42.607Z,25.61
2022-08-07T21:33:38.385Z,25.60
2022-08-07T21:36:50.216Z,25.76
2022-08-07T21:39:45.789Z,25.89
2022-08-07T21:42:37.459Z,25.85
2022-08-07T21:46:09.224Z,25.73
2022-08-07T21:48:56.483Z,25.61
2022-08-07T21:51:27.733Z,25.50
2022-08-07T21:54:18.696Z,25.34
2022-08-07T21:56:51.931Z,25.40
2022-08-07T22:00:04.404Z,25.40
2022-08-07T22:03:07.809Z,25.34
2022-08-07T22:05:54.315Z,25.44
2022-08-07T22:08:24.814Z,25.24
2022-08-07T22:11:02.546Z,25.17
2022-08-07T22:13:52.758Z,24.86
2022-08-07T22:16:38.553Z,24.78
2022-08-07T22:19:23.771Z,24.98
2022-08-07T22:22:17.932Z,25.03
2022-08-07T22:24:51.671Z,25.21
2022-08-07T22:27:33.862Z,25.35
2022-08-07T22:30:31.816Z,25.29
2022-08-07T22:33:56.450Z,25.44
2022-08-07T22:36:42.560Z,25.60
2022-08-07T22:39:18.904Z,25.55
2022-08-07T22:42:03.176Z,25.57
2022-08-07T22:44:58.898Z,25.62
2022-08-07T22:47:39.915Z,25.48
2022-08-07T22:50:29.174Z,25.52
2022-08-07T22:53:15.157Z,25.42
2022-08-07T22:55:45.735Z,25.25
2022-08-07T22:58:28.488Z,25.14
2022-08-07T23:01:49.696Z,25.00
2022-08-07T23:04:31.388Z,25.06
2022-08-07T23:07:30.150Z,25.10
2022-08-07T23:10:37.352Z,25.15
2022-08-07T23:13:07.283Z,24.99
2022-08-07T23:16:07.181Z,24.99
2022-08-07T23:18:42.164Z,25.01
2022-08-07T23:21:29.842Z,24.96
2022-08-07T23:24:21.157Z,24.90
2022-08-07T23:27:33.307Z,24.85
2022-08-07T23:30:37.524Z,24.94
2022-08-07T23:34:36.301Z,24.96
2022-08-07T23:35:48.830Z,24.67
2022-08-07T23:38:43.013Z,24.67
2022-08-07T23:42:04.657Z,24.73
2022-08-07T23:44:45.277Z,24.94
2022-08-07T23:47:21.455Z,24.84
2022-08-07T23:50:11.749Z,24.56
2022-08-07T23:53:05.860Z,24.42
2022-08-07T23:55:55.633Z,24.33
2022-08-07T23:59:10.595Z,24.24
